Terminal Aerodrome Forecast
Issued by NWS Mt. Holly, NJ

Home | Current Version | Previous Version | Text Only | Print | Product List | Glossary On
Versions: 1 2 3 4 5 6 7 8 9 10 11 12 13 14 15 16 17 18 19 20 21 22 23 24 25 26
000
FTUS41 KPHI 261300 AAA
TAFTTN
TAF AMD
KTTN 261315Z 2613/2712 06012KT 1 1/2SM -SN SCT015 OVC025
     FM261400 06015KT 4SM -SN OVC020
      TEMPO 2614/2616 2SM -SN OVC010
     FM261600 05015G25KT 3SM -SN OVC010
     FM262200 04020G30KT 1SM -SN OVC006
     FM270200 02020G30KT 1/2SM SN OVC004=

USA.gov is the U.S. government's official web portal to all federal, state and local government web resources and services.